Time;durP1;ratioP1;P1;durP2;ratioP2;P2;SDS_P1;SDS_P2;PMS_P1;PMS_P2;Temp;Humidity;BMP_temperature;BMP_pressure;BME280_temperature;BME280_humidity;BME280_pressure;Samples;Min_cycle;Max_cycle;Signal;HPM_P1;HPM_P2
2022/03/09 00:00:16;;;;;;;;;;;3.10;99.90;;;;;;5065278;28;20372;-82
2022/03/09 00:02:41;;;;;;;;;;;3.10;99.90;;;;;;5037179;28;19972;-81
2022/03/09 00:05:07;;;;;;;;;;;3.10;99.90;;;;;;5051953;28;20429;-81
2022/03/09 00:07:32;;;;;;;;;;;3.10;99.90;;;;;;5033788;28;19956;-81
2022/03/09 00:09:58;;;;;;;;;;;3.00;99.90;;;;;;5052550;28;20015;-81
2022/03/09 00:12:23;;;;;;;;;;;2.90;99.90;;;;;;5052058;28;20066;-81
2022/03/09 00:14:49;;;;;;;;;;;2.90;99.90;;;;;;5053478;28;20007;-81
2022/03/09 00:17:14;;;;;;;;;;;2.80;99.90;;;;;;5052969;28;19920;-81
2022/03/09 00:19:40;;;;;;;;;;;2.80;99.90;;;;;;5034359;28;19924;-81
2022/03/09 00:22:05;;;;;;;;;;;2.80;99.90;;;;;;5034271;28;20017;-81
2022/03/09 00:24:32;;;;;;;;;;;2.70;99.90;;;;;;5034624;28;19920;-81
2022/03/09 00:26:58;;;;;;;;;;;2.70;99.90;;;;;;5034322;28;19921;-82
2022/03/09 00:29:23;;;;;;;;;;;2.80;99.90;;;;;;5035126;28;19932;-81
2022/03/09 00:31:49;;;;;;;;;;;2.80;99.90;;;;;;5034509;28;19924;-81
2022/03/09 00:34:15;;;;;;;;;;;2.80;99.90;;;;;;5033911;28;19966;-82
2022/03/09 00:36:40;;;;;;;;;;;2.70;99.90;;;;;;5034770;28;19921;-82
2022/03/09 00:39:06;;;;;;;;;;;2.70;99.90;;;;;;5034766;28;19925;-82
2022/03/09 00:41:31;;;;;;;;;;;2.70;99.90;;;;;;5034213;28;20019;-82
2022/03/09 00:43:57;;;;;;;;;;;2.70;99.90;;;;;;5054104;28;20265;-82
2022/03/09 00:46:22;;;;;;;;;;;2.60;99.90;;;;;;5038936;28;19920;-82
2022/03/09 00:48:48;;;;;;;;;;;2.60;99.90;;;;;;5055566;28;19920;-82
2022/03/09 00:51:16;;;;;;;;;;;2.60;99.90;;;;;;5055766;28;19921;-82
2022/03/09 00:53:42;;;;;;;;;;;2.60;99.90;;;;;;5056098;28;19928;-82
2022/03/09 00:56:07;;;;;;;;;;;2.60;99.90;;;;;;5037490;28;19920;-82
2022/03/09 00:58:33;;;;;;;;;;;2.60;99.90;;;;;;5037699;28;19921;-82
2022/03/09 01:01:01;;;;;;;;;;;2.60;99.90;;;;;;5037882;28;20019;-81
2022/03/09 01:03:27;;;;;;;;;;;2.60;99.90;;;;;;5038203;28;20428;-80
2022/03/09 01:05:52;;;;;;;;;;;2.60;99.90;;;;;;5055872;28;19920;-81
2022/03/09 01:08:18;;;;;;;;;;;2.50;99.90;;;;;;5036648;28;20368;-81
2022/03/09 01:10:43;;;;;;;;;;;2.40;99.90;;;;;;5037697;28;20007;-81
2022/03/09 01:13:09;;;;;;;;;;;2.50;99.90;;;;;;5055198;28;20000;-82
2022/03/09 01:15:34;;;;;;;;;;;2.40;99.90;;;;;;5054874;28;20003;-82
2022/03/09 01:18:00;;;;;;;;;;;2.40;99.90;;;;;;5037312;28;19921;-81
2022/03/09 01:20:25;;;;;;;;;;;2.30;99.90;;;;;;5038181;28;20378;-81
2022/03/09 01:22:52;;;;;;;;;;;2.30;99.90;;;;;;5036987;28;19920;-82
2022/03/09 01:25:18;;;;;;;;;;;2.30;99.90;;;;;;5054964;28;19920;-82
2022/03/09 01:27:43;;;;;;;;;;;2.30;99.90;;;;;;5037502;28;20443;-79
2022/03/09 01:30:09;;;;;;;;;;;2.20;99.90;;;;;;5036727;28;20410;-81
2022/03/09 01:32:35;;;;;;;;;;;2.20;99.90;;;;;;5055117;28;19921;-82
2022/03/09 01:35:00;;;;;;;;;;;2.30;99.90;;;;;;5038505;28;19920;-81
2022/03/09 01:37:26;;;;;;;;;;;2.30;99.90;;;;;;5036526;28;19931;-82
2022/03/09 01:39:51;;;;;;;;;;;2.30;99.90;;;;;;5037484;28;20368;-82
2022/03/09 01:42:17;;;;;;;;;;;2.80;99.90;;;;;;5054730;28;20034;-81
2022/03/09 01:44:43;;;;;;;;;;;2.20;99.90;;;;;;5061602;28;19966;-82
2022/03/09 01:47:09;;;;;;;;;;;2.20;99.90;;;;;;5074710;28;20318;-82
2022/03/09 01:49:38;;;;;;;;;;;2.20;99.90;;;;;;5056947;28;19927;-81
2022/03/09 01:52:04;;;;;;;;;;;2.10;99.90;;;;;;5056192;28;19920;-82
2022/03/09 01:54:29;;;;;;;;;;;2.10;99.90;;;;;;5053370;28;19963;-82
2022/03/09 01:56:55;;;;;;;;;;;2.10;99.90;;;;;;5037183;28;20391;-81
2022/03/09 01:59:21;;;;;;;;;;;2.20;99.90;;;;;;5036098;28;19963;-81
2022/03/09 02:01:47;;;;;;;;;;;2.40;99.90;;;;;;5037061;28;19974;-81
2022/03/09 02:04:13;;;;;;;;;;;2.40;99.90;;;;;;5053700;28;20415;-81
2022/03/09 02:06:38;;;;;;;;;;;2.40;99.90;;;;;;5038018;28;19935;-82
2022/03/09 02:11:50;;;;;;;;;;;2.30;99.90;;;;;;5053995;28;20380;-81
2022/03/09 02:14:25;;;;;;;;;;;2.30;99.90;;;;;;5054050;28;20011;-81
2022/03/09 02:16:51;;;;;;;;;;;2.10;99.90;;;;;;5054571;28;19920;-81
2022/03/09 02:19:16;;;;;;;;;;;2.00;99.90;;;;;;5035746;28;20384;-81
2022/03/09 02:21:43;;;;;;;;;;;2.00;99.90;;;;;;5036370;28;19974;-81
2022/03/09 02:24:08;;;;;;;;;;;2.00;99.90;;;;;;5037384;28;19973;-81
2022/03/09 02:26:35;;;;;;;;;;;1.90;99.90;;;;;;5053524;28;19928;-81
2022/03/09 02:29:00;;;;;;;;;;;1.90;99.90;;;;;;5035809;28;19921;-81
2022/03/09 02:31:25;;;;;;;;;;;1.90;99.90;;;;;;5035783;28;19947;-81
2022/03/09 02:33:51;;;;;;;;;;;1.80;99.90;;;;;;5035621;28;19921;-81
2022/03/09 02:36:20;;;;;;;;;;;1.60;99.90;;;;;;5035950;28;19975;-80
2022/03/09 02:38:45;;;;;;;;;;;1.60;99.90;;;;;;5036030;28;19927;-80
2022/03/09 02:41:11;;;;;;;;;;;1.60;99.90;;;;;;5036216;28;19924;-81
2022/03/09 02:43:39;;;;;;;;;;;1.60;99.90;;;;;;5036293;28;19966;-81
2022/03/09 02:46:05;;;;;;;;;;;1.50;99.90;;;;;;5035659;28;19920;-80
2022/03/09 02:48:30;;;;;;;;;;;1.40;99.90;;;;;;5035376;28;20459;-80
2022/03/09 02:50:56;;;;;;;;;;;1.30;99.90;;;;;;5035796;28;19925;-80
2022/03/09 02:53:21;;;;;;;;;;;1.20;99.90;;;;;;5035562;28;20319;-80
2022/03/09 02:55:47;;;;;;;;;;;1.20;99.90;;;;;;5035156;28;19972;-80
2022/03/09 02:58:12;;;;;;;;;;;1.20;99.90;;;;;;5035448;28;20015;-80
2022/03/09 03:00:38;;;;;;;;;;;1.20;99.90;;;;;;5035904;28;19924;-80
2022/03/09 03:03:03;;;;;;;;;;;1.20;99.90;;;;;;5053422;28;19928;-80
2022/03/09 03:05:29;;;;;;;;;;;1.20;99.90;;;;;;5053266;28;20388;-80
2022/03/09 03:07:54;;;;;;;;;;;1.20;99.90;;;;;;5034698;28;19920;-80
2022/03/09 03:10:20;;;;;;;;;;;1.10;99.90;;;;;;5053151;28;20304;-81
2022/03/09 03:12:45;;;;;;;;;;;1.10;99.90;;;;;;5035486;28;19925;-80
2022/03/09 03:15:11;;;;;;;;;;;1.00;99.90;;;;;;5036040;28;20032;-80
2022/03/09 03:17:37;;;;;;;;;;;1.00;99.90;;;;;;5053249;28;19927;-80
2022/03/09 03:20:03;;;;;;;;;;;1.00;99.90;;;;;;5053397;28;19928;-80
2022/03/09 03:22:29;;;;;;;;;;;1.00;99.90;;;;;;5035145;28;20288;-81
2022/03/09 03:24:55;;;;;;;;;;;0.90;99.90;;;;;;5035727;28;19920;-81
2022/03/09 03:27:20;;;;;;;;;;;0.90;99.90;;;;;;5035317;28;19920;-81
2022/03/09 03:29:45;;;;;;;;;;;0.80;99.90;;;;;;5034755;28;19928;-81
2022/03/09 03:32:11;;;;;;;;;;;0.80;99.90;;;;;;5053803;28;20395;-81
2022/03/09 03:34:37;;;;;;;;;;;0.70;99.90;;;;;;5053162;28;19920;-80
2022/03/09 03:37:02;;;;;;;;;;;0.70;99.90;;;;;;5034849;28;20023;-81
2022/03/09 03:39:28;;;;;;;;;;;0.70;99.90;;;;;;5035112;28;19950;-81
2022/03/09 03:41:53;;;;;;;;;;;0.70;99.90;;;;;;5035423;28;20371;-80
2022/03/09 03:44:19;;;;;;;;;;;0.70;99.90;;;;;;5052156;28;19978;-80
2022/03/09 03:46:44;;;;;;;;;;;0.70;99.90;;;;;;5035162;28;19967;-81
2022/03/09 03:49:10;;;;;;;;;;;0.70;99.90;;;;;;5035852;28;20288;-81
2022/03/09 03:51:35;;;;;;;;;;;0.70;99.90;;;;;;5034495;28;19921;-81
2022/03/09 03:54:01;;;;;;;;;;;0.70;99.90;;;;;;5034825;28;19947;-81
2022/03/09 03:56:26;;;;;;;;;;;0.70;99.90;;;;;;5052471;28;19960;-81
2022/03/09 03:58:52;;;;;;;;;;;0.70;99.90;;;;;;5034284;28;19979;-80
2022/03/09 04:01:17;;;;;;;;;;;0.70;99.90;;;;;;5052741;28;19921;-80
2022/03/09 04:03:43;;;;;;;;;;;0.70;99.90;;;;;;5034886;28;20261;-80
2022/03/09 04:06:08;;;;;;;;;;;0.70;99.90;;;;;;5034362;28;19921;-81
2022/03/09 04:08:34;;;;;;;;;;;0.70;99.90;;;;;;5036080;28;19928;-81
2022/03/09 04:10:59;;;;;;;;;;;0.70;99.90;;;;;;5034233;28;19921;-81
2022/03/09 04:13:25;;;;;;;;;;;0.70;99.90;;;;;;5034368;28;19921;-81
2022/03/09 04:15:50;;;;;;;;;;;0.70;99.90;;;;;;5052817;28;19925;-81
2022/03/09 04:18:16;;;;;;;;;;;0.70;99.90;;;;;;5036022;28;19932;-81
2022/03/09 04:20:41;;;;;;;;;;;0.70;99.90;;;;;;5038759;28;19960;-81
2022/03/09 04:23:08;;;;;;;;;;;0.70;99.90;;;;;;5038354;28;19921;-80
2022/03/09 04:25:37;;;;;;;;;;;0.70;99.90;;;;;;5057225;28;19964;-81
2022/03/09 04:28:03;;;;;;;;;;;0.70;99.90;;;;;;5055908;28;20406;-81
2022/03/09 04:30:29;;;;;;;;;;;2.00;99.90;;;;;;5038530;28;19920;-81
2022/03/09 04:32:54;;;;;;;;;;;0.70;99.90;;;;;;5038007;28;19978;-81
2022/03/09 04:35:20;;;;;;;;;;;0.70;99.90;;;;;;5038476;28;19927;-80
2022/03/09 04:37:45;;;;;;;;;;;0.70;99.90;;;;;;5038200;28;19964;-81
2022/03/09 04:40:11;;;;;;;;;;;0.70;99.90;;;;;;5055503;28;19989;-81
2022/03/09 04:42:36;;;;;;;;;;;0.60;99.90;;;;;;5041353;28;19925;-80
2022/03/09 04:45:02;;;;;;;;;;;0.60;99.90;;;;;;5038541;28;19921;-80
2022/03/09 04:47:28;;;;;;;;;;;0.90;99.90;;;;;;5057183;28;19964;-80
2022/03/09 04:49:54;;;;;;;;;;;0.70;99.90;;;;;;5064314;28;20281;-80
2022/03/09 04:52:19;;;;;;;;;;;0.70;99.90;;;;;;5057082;28;19924;-80
2022/03/09 04:54:45;;;;;;;;;;;0.70;99.90;;;;;;5057691;28;20310;-80
2022/03/09 04:57:11;;;;;;;;;;;0.60;99.90;;;;;;5057948;28;20010;-81
2022/03/09 04:59:36;;;;;;;;;;;0.60;99.90;;;;;;5057396;28;19939;-81
2022/03/09 05:02:02;;;;;;;;;;;0.60;99.90;;;;;;5041586;28;20291;-81
2022/03/09 05:04:27;;;;;;;;;;;0.60;99.90;;;;;;5071773;28;19966;-80
2022/03/09 05:06:56;;;;;;;;;;;0.50;99.90;;;;;;5075570;28;19920;-81
2022/03/09 05:09:21;;;;;;;;;;;0.60;99.90;;;;;;5073357;28;20303;-80
2022/03/09 05:11:46;;;;;;;;;;;0.50;99.90;;;;;;5064340;28;19974;-80
2022/03/09 05:14:12;;;;;;;;;;;0.50;99.90;;;;;;5057046;28;19998;-80
2022/03/09 05:16:39;;;;;;;;;;;0.50;99.90;;;;;;5075821;28;19926;-80
2022/03/09 05:19:05;;;;;;;;;;;0.50;99.90;;;;;;5075073;28;19924;-80
2022/03/09 05:21:30;;;;;;;;;;;0.50;99.90;;;;;;5057434;28;20425;-81
2022/03/09 05:23:56;;;;;;;;;;;0.50;99.90;;;;;;5075425;28;19939;-81
2022/03/09 05:26:21;;;;;;;;;;;0.40;99.90;;;;;;5055459;28;19946;-80
2022/03/09 05:28:47;;;;;;;;;;;0.40;99.90;;;;;;5056120;28;19946;-81
2022/03/09 05:31:12;;;;;;;;;;;0.50;99.90;;;;;;5074726;28;19973;-82
2022/03/09 05:33:38;;;;;;;;;;;0.50;99.90;;;;;;5075041;28;20019;-82
2022/03/09 05:36:04;;;;;;;;;;;0.50;99.90;;;;;;5056591;28;20006;-82
2022/03/09 05:38:29;;;;;;;;;;;0.50;99.90;;;;;;5057480;28;20492;-82
2022/03/09 05:40:55;;;;;;;;;;;0.50;99.90;;;;;;5075188;28;19920;-82
2022/03/09 05:43:20;;;;;;;;;;;0.40;99.90;;;;;;5070951;28;19927;-82
2022/03/09 05:45:46;;;;;;;;;;;0.50;99.90;;;;;;5057185;28;20368;-82
2022/03/09 05:48:11;;;;;;;;;;;0.50;99.90;;;;;;5072994;28;19949;-81
2022/03/09 05:50:37;;;;;;;;;;;0.50;99.90;;;;;;5074017;28;19921;-82
2022/03/09 05:53:03;;;;;;;;;;;0.50;99.90;;;;;;5056862;28;19966;-82
2022/03/09 05:55:28;;;;;;;;;;;0.50;99.90;;;;;;5056727;28;20291;-82
2022/03/09 05:57:54;;;;;;;;;;;0.50;99.90;;;;;;5054775;28;19921;-82
2022/03/09 06:00:19;;;;;;;;;;;0.50;99.90;;;;;;5061641;28;19927;-81
2022/03/09 06:02:45;;;;;;;;;;;0.50;99.90;;;;;;5052897;28;20007;-80
2022/03/09 06:05:10;;;;;;;;;;;0.40;99.90;;;;;;5047412;28;20320;-78
2022/03/09 06:07:36;;;;;;;;;;;0.40;99.90;;;;;;5050967;28;20046;-79
2022/03/09 06:10:02;;;;;;;;;;;0.30;99.90;;;;;;5064232;28;19935;-77
2022/03/09 06:12:27;;;;;;;;;;;0.30;99.90;;;;;;5055201;28;19963;-77
2022/03/09 06:14:55;;;;;;;;;;;0.30;99.90;;;;;;5051783;28;19959;-83
2022/03/09 06:17:20;;;;;;;;;;;0.30;99.90;;;;;;5054194;28;19928;-82
2022/03/09 06:19:46;;;;;;;;;;;0.30;99.90;;;;;;5049906;28;19924;-81
2022/03/09 06:22:11;;;;;;;;;;;0.30;99.90;;;;;;5055424;28;20288;-80
2022/03/09 06:24:37;;;;;;;;;;;0.30;99.90;;;;;;5074019;28;20027;-83
2022/03/09 06:27:03;;;;;;;;;;;0.40;99.90;;;;;;5050021;28;19968;-81
2022/03/09 06:29:29;;;;;;;;;;;0.40;99.90;;;;;;5063026;28;20011;-85
2022/03/09 06:31:55;;;;;;;;;;;0.40;99.90;;;;;;5071915;28;20325;-80
2022/03/09 06:34:21;;;;;;;;;;;0.40;99.90;;;;;;5063493;28;19973;-74
2022/03/09 06:36:46;;;;;;;;;;;0.40;99.90;;;;;;5068339;28;20388;-83
2022/03/09 06:39:13;;;;;;;;;;;0.40;99.90;;;;;;5046177;28;19921;-82
2022/03/09 06:41:40;;;;;;;;;;;0.40;99.90;;;;;;5051249;28;19927;-83
2022/03/09 06:44:05;;;;;;;;;;;0.40;99.90;;;;;;5035801;28;20296;-80
2022/03/09 06:46:31;;;;;;;;;;;0.50;99.90;;;;;;5034055;28;19920;-80
2022/03/09 06:48:56;;;;;;;;;;;0.40;99.90;;;;;;5034303;28;20398;-81
2022/03/09 06:51:22;;;;;;;;;;;0.50;99.90;;;;;;5051848;28;19927;-79
2022/03/09 06:53:47;;;;;;;;;;;0.50;99.90;;;;;;5041271;28;19921;-80
2022/03/09 06:56:13;;;;;;;;;;;0.60;99.90;;;;;;5043122;28;19927;-83
2022/03/09 06:58:38;;;;;;;;;;;0.80;99.90;;;;;;5034613;28;20327;-82
2022/03/09 07:01:04;;;;;;;;;;;0.90;99.90;;;;;;5051878;28;19921;-88
2022/03/09 07:03:30;;;;;;;;;;;0.90;99.90;;;;;;5039583;28;19974;-86
2022/03/09 07:05:56;;;;;;;;;;;0.90;99.90;;;;;;5051809;28;19982;-84
2022/03/09 07:08:21;;;;;;;;;;;1.00;99.90;;;;;;5072442;28;19924;-86
2022/03/09 07:10:47;;;;;;;;;;;1.10;99.90;;;;;;5073361;28;20368;-89
2022/03/09 07:13:18;;;;;;;;;;;1.10;99.90;;;;;;5042906;28;19921;-87
2022/03/09 07:15:44;;;;;;;;;;;1.10;99.90;;;;;;5035078;28;19922;-79
2022/03/09 07:18:09;;;;;;;;;;;1.20;99.90;;;;;;5034742;28;19927;-80
2022/03/09 07:20:35;;;;;;;;;;;1.30;99.90;;;;;;5036311;28;19920;-86
2022/03/09 07:23:00;;;;;;;;;;;1.30;99.90;;;;;;5035092;28;19931;-82
2022/03/09 07:25:26;;;;;;;;;;;1.40;99.90;;;;;;5038942;28;20410;-80
2022/03/09 07:27:52;;;;;;;;;;;1.40;99.90;;;;;;5066196;28;19974;-84
2022/03/09 07:30:17;;;;;;;;;;;1.50;99.90;;;;;;5050995;28;20416;-82
2022/03/09 07:32:43;;;;;;;;;;;1.70;99.90;;;;;;5051385;28;20058;-83
2022/03/09 07:35:11;;;;;;;;;;;1.70;99.90;;;;;;5052228;28;19990;-80
2022/03/09 07:37:37;;;;;;;;;;;1.90;99.90;;;;;;5051704;28;20445;-80
2022/03/09 07:40:04;;;;;;;;;;;2.00;99.90;;;;;;5051222;28;19931;-84
2022/03/09 07:42:29;;;;;;;;;;;2.10;99.90;;;;;;5017381;28;20299;-83
2022/03/09 07:44:55;;;;;;;;;;;2.10;99.90;;;;;;5052756;28;19921;-83
2022/03/09 07:47:21;;;;;;;;;;;2.20;99.90;;;;;;5039460;28;19921;-83
2022/03/09 07:49:46;;;;;;;;;;;2.30;99.90;;;;;;5051044;28;19925;-82
2022/03/09 07:52:12;;;;;;;;;;;3.10;99.90;;;;;;5052294;28;19932;-83
2022/03/09 07:54:38;;;;;;;;;;;2.30;99.90;;;;;;5059618;28;19921;-82
2022/03/09 07:57:03;;;;;;;;;;;2.50;99.90;;;;;;5040721;28;20380;-78
2022/03/09 07:59:29;;;;;;;;;;;2.60;99.90;;;;;;5056833;28;19966;-81
2022/03/09 08:01:54;;;;;;;;;;;3.40;99.90;;;;;;5061032;28;19921;-86
2022/03/09 08:04:21;;;;;;;;;;;4.90;99.90;;;;;;5078830;28;20268;-82
2022/03/09 08:06:48;;;;;;;;;;;6.50;99.90;;;;;;5080235;28;20294;-84
2022/03/09 08:09:13;;;;;;;;;;;7.70;99.00;;;;;;5059907;28;20261;-84
2022/03/09 08:11:42;;;;;;;;;;;8.70;95.30;;;;;;5063051;28;19921;-84
2022/03/09 08:14:08;;;;;;;;;;;10.70;91.80;;;;;;5067153;28;19976;-78
2022/03/09 08:16:34;;;;;;;;;;;10.00;89.60;;;;;;5059419;28;19964;-81
2022/03/09 08:18:59;;;;;;;;;;;10.50;88.70;;;;;;5070572;28;19921;-81
2022/03/09 08:21:25;;;;;;;;;;;10.60;84.30;;;;;;5077741;28;20372;-80
2022/03/09 08:23:50;;;;;;;;;;;11.00;82.70;;;;;;5061258;28;19920;-81
2022/03/09 08:26:16;;;;;;;;;;;11.40;75.40;;;;;;5078300;28;19921;-79
2022/03/09 08:28:41;;;;;;;;;;;11.60;74.80;;;;;;5049008;28;20380;-78
2022/03/09 08:31:07;;;;;;;;;;;11.90;75.50;;;;;;5077110;28;19931;-78
2022/03/09 08:33:32;;;;;;;;;;;12.30;70.60;;;;;;5057368;28;19921;-79
2022/03/09 08:35:59;;;;;;;;;;;12.50;69.00;;;;;;5057859;28;19920;-78
2022/03/09 08:38:24;;;;;;;;;;;12.80;67.60;;;;;;5040048;28;20007;-79
2022/03/09 08:40:50;;;;;;;;;;;13.00;65.00;;;;;;5059064;28;20016;-79
2022/03/09 08:43:15;;;;;;;;;;;13.30;64.70;;;;;;5040635;28;19920;-78
2022/03/09 08:45:41;;;;;;;;;;;13.60;62.00;;;;;;5059527;28;19920;-78
2022/03/09 08:48:06;;;;;;;;;;;13.50;61.60;;;;;;5040404;28;19978;-78
2022/03/09 08:50:32;;;;;;;;;;;13.70;59.60;;;;;;5040985;28;19955;-81
2022/03/09 08:52:58;;;;;;;;;;;14.00;61.10;;;;;;5041014;28;19925;-82
2022/03/09 08:55:23;;;;;;;;;;;14.20;56.50;;;;;;5040275;28;19925;-78
2022/03/09 08:57:49;;;;;;;;;;;14.60;56.50;;;;;;5065516;28;20011;-77
2022/03/09 09:00:14;;;;;;;;;;;14.70;55.90;;;;;;5061284;28;20003;-79
2022/03/09 09:02:40;;;;;;;;;;;14.40;54.70;;;;;;5046640;28;20391;-79
2022/03/09 09:05:06;;;;;;;;;;;14.50;56.20;;;;;;5056212;28;19921;-79
2022/03/09 09:07:32;;;;;;;;;;;14.50;54.60;;;;;;5056486;28;20018;-79
2022/03/09 09:09:57;;;;;;;;;;;14.60;57.70;;;;;;5046078;28;19927;-77
2022/03/09 09:12:23;;;;;;;;;;;15.20;55.70;;;;;;5053591;28;20029;-76
2022/03/09 09:14:48;;;;;;;;;;;15.60;54.20;;;;;;5068450;28;19931;-77
2022/03/09 09:17:14;;;;;;;;;;;15.50;51.20;;;;;;5055745;28;19927;-77
2022/03/09 09:19:40;;;;;;;;;;;16.00;51.90;;;;;;5056684;28;20012;-78
2022/03/09 09:22:05;;;;;;;;;;;15.80;53.00;;;;;;5055820;28;19920;-78
2022/03/09 09:24:31;;;;;;;;;;;16.20;52.70;;;;;;5056104;28;19920;-78
2022/03/09 09:26:56;;;;;;;;;;;16.10;50.50;;;;;;5057449;28;19925;-78
2022/03/09 09:29:22;;;;;;;;;;;16.00;50.90;;;;;;5052341;28;19943;-79
2022/03/09 09:31:49;;;;;;;;;;;16.00;49.60;;;;;;5053382;28;20015;-78
2022/03/09 09:34:16;;;;;;;;;;;15.70;51.10;;;;;;5054390;28;20015;-78
2022/03/09 09:36:45;;;;;;;;;;;15.80;50.10;;;;;;5053263;28;19967;-78
2022/03/09 09:39:13;;;;;;;;;;;16.00;50.20;;;;;;5053306;28;20284;-79
2022/03/09 09:41:41;;;;;;;;;;;16.00;49.90;;;;;;5052951;28;19925;-79
2022/03/09 09:44:07;;;;;;;;;;;15.90;51.20;;;;;;5053182;28;19925;-79
2022/03/09 09:46:35;;;;;;;;;;;16.10;51.00;;;;;;5052116;28;19975;-78
2022/03/09 09:49:00;;;;;;;;;;;16.50;48.50;;;;;;5052822;28;19967;-79
2022/03/09 09:51:26;;;;;;;;;;;16.40;49.20;;;;;;5053384;28;19964;-78
2022/03/09 09:53:52;;;;;;;;;;;16.40;50.70;;;;;;5053152;28;19962;-79
2022/03/09 09:56:18;;;;;;;;;;;16.50;48.80;;;;;;5053620;28;19921;-79
2022/03/09 09:58:46;;;;;;;;;;;16.60;49.30;;;;;;5054225;28;19920;-79
2022/03/09 10:01:12;;;;;;;;;;;16.80;48.10;;;;;;5053263;28;19916;-78
2022/03/09 10:03:38;;;;;;;;;;;16.80;49.70;;;;;;5050535;28;19927;-79
2022/03/09 10:06:03;;;;;;;;;;;17.00;49.50;;;;;;5053406;28;19987;-78
2022/03/09 10:08:29;;;;;;;;;;;17.40;49.40;;;;;;5052899;28;19921;-79
2022/03/09 10:10:56;;;;;;;;;;;17.90;48.10;;;;;;5053387;28;19984;-79
2022/03/09 10:13:25;;;;;;;;;;;17.60;47.40;;;;;;5051525;28;19920;-78
2022/03/09 10:16:06;;;;;;;;;;;17.80;47.00;;;;;;5045955;28;19921;-77
2022/03/09 10:18:32;;;;;;;;;;;17.70;46.10;;;;;;5033431;28;19927;-80
2022/03/09 10:21:07;;;;;;;;;;;17.90;47.00;;;;;;5034089;28;19921;-80
2022/03/09 10:23:33;;;;;;;;;;;18.00;46.40;;;;;;5032566;28;19948;-77
2022/03/09 10:26:01;;;;;;;;;;;18.00;46.30;;;;;;5034241;28;19921;-81
2022/03/09 10:28:27;;;;;;;;;;;17.90;45.50;;;;;;5032686;28;20379;-78
2022/03/09 10:30:52;;;;;;;;;;;18.00;46.40;;;;;;5040550;28;19921;-81
2022/03/09 10:33:18;;;;;;;;;;;17.90;47.10;;;;;;5053478;28;19920;-80
2022/03/09 10:35:44;;;;;;;;;;;19.30;45.10;;;;;;5054126;28;20275;-81
2022/03/09 10:38:15;;;;;;;;;;;18.90;44.00;;;;;;5051275;28;19920;-81
2022/03/09 10:40:45;;;;;;;;;;;19.00;44.30;;;;;;5053235;28;19920;-81
2022/03/09 10:43:13;;;;;;;;;;;18.90;44.60;;;;;;5068595;28;19928;-81
2022/03/09 10:45:58;;;;;;;;;;;18.80;44.50;;;;;;5052403;28;19942;-81
2022/03/09 10:48:24;;;;;;;;;;;19.10;42.90;;;;;;5034682;28;19925;-81
2022/03/09 10:50:50;;;;;;;;;;;18.90;41.40;;;;;;5053732;28;20011;-80
2022/03/09 10:53:16;;;;;;;;;;;18.70;42.60;;;;;;5048439;28;20408;-80
2022/03/09 10:55:42;;;;;;;;;;;19.20;41.80;;;;;;5050343;28;19966;-81
2022/03/09 10:58:11;;;;;;;;;;;18.70;41.50;;;;;;5052779;28;19920;-82
2022/03/09 11:00:53;;;;;;;;;;;18.50;43.50;;;;;;5051529;28;19925;-82
2022/03/09 11:03:26;;;;;;;;;;;18.90;42.20;;;;;;5051883;28;20360;-79
2022/03/09 11:05:59;;;;;;;;;;;18.70;42.00;;;;;;5044812;28;19921;-80
2022/03/09 11:08:27;;;;;;;;;;;18.80;41.80;;;;;;5049000;28;19971;-79
2022/03/09 11:10:55;;;;;;;;;;;18.40;42.30;;;;;;5053358;28;19927;-79
2022/03/09 11:13:21;;;;;;;;;;;18.40;42.80;;;;;;5044588;28;19921;-82
2022/03/09 11:15:49;;;;;;;;;;;18.60;41.70;;;;;;5031908;28;19921;-81
2022/03/09 11:18:18;;;;;;;;;;;18.30;42.90;;;;;;5034416;28;19921;-82
2022/03/09 11:20:44;;;;;;;;;;;18.60;43.00;;;;;;5036053;28;20524;-81
2022/03/09 11:23:11;;;;;;;;;;;18.60;41.60;;;;;;5031614;28;19929;-79
2022/03/09 11:25:37;;;;;;;;;;;19.10;42.30;;;;;;5044683;28;19956;-77
2022/03/09 11:28:03;;;;;;;;;;;19.00;42.20;;;;;;5052983;28;20033;-78
2022/03/09 11:30:30;;;;;;;;;;;19.10;40.80;;;;;;5071326;28;20011;-78
2022/03/09 11:32:57;;;;;;;;;;;19.00;41.00;;;;;;5078820;28;19920;-79
2022/03/09 11:35:29;;;;;;;;;;;18.70;41.80;;;;;;5050823;28;19924;-87
2022/03/09 11:37:55;;;;;;;;;;;18.60;41.90;;;;;;5054874;28;19920;-84
2022/03/09 11:40:21;;;;;;;;;;;18.50;43.10;;;;;;5070348;28;19943;-80
2022/03/09 11:42:46;;;;;;;;;;;18.60;42.60;;;;;;5072300;28;19930;-83
2022/03/09 11:45:20;;;;;;;;;;;18.60;41.40;;;;;;5072686;28;19946;-81
2022/03/09 11:48:07;;;;;;;;;;;18.50;40.90;;;;;;5073068;28;19920;-81
2022/03/09 11:50:59;;;;;;;;;;;18.80;41.50;;;;;;5053468;28;19927;-79
2022/03/09 11:53:38;;;;;;;;;;;18.80;42.20;;;;;;5041086;28;19925;-79
2022/03/09 11:56:22;;;;;;;;;;;19.00;41.80;;;;;;5070254;28;19921;-79
2022/03/09 11:59:06;;;;;;;;;;;19.20;40.60;;;;;;5061824;28;19955;-80
2022/03/09 12:01:32;;;;;;;;;;;19.40;41.60;;;;;;5072515;28;19921;-78
2022/03/09 12:03:57;;;;;;;;;;;19.70;41.70;;;;;;5067395;28;19921;-79
2022/03/09 12:06:42;;;;;;;;;;;19.80;40.20;;;;;;5036210;28;19925;-81
2022/03/09 12:09:09;;;;;;;;;;;19.60;40.60;;;;;;5051712;28;19967;-80
2022/03/09 12:12:05;;;;;;;;;;;19.70;40.70;;;;;;5058794;28;19928;-79
2022/03/09 12:14:49;;;;;;;;;;;19.50;40.40;;;;;;5054664;28;19946;-80
2022/03/09 12:17:26;;;;;;;;;;;19.20;42.80;;;;;;5053769;28;19927;-82
2022/03/09 12:20:11;;;;;;;;;;;19.60;41.10;;;;;;5072704;28;19982;-82
2022/03/09 12:22:54;;;;;;;;;;;19.90;40.80;;;;;;5055093;28;20015;-81
2022/03/09 12:25:39;;;;;;;;;;;19.80;41.90;;;;;;5053507;28;19920;-81
2022/03/09 12:28:28;;;;;;;;;;;20.30;41.50;;;;;;5039390;28;20020;-81
2022/03/09 12:30:54;;;;;;;;;;;20.40;40.30;;;;;;5050597;28;19928;-81
2022/03/09 12:33:23;;;;;;;;;;;19.90;40.00;;;;;;5052468;28;19921;-81
2022/03/09 12:35:49;;;;;;;;;;;19.60;40.80;;;;;;5046144;28;19920;-90
2022/03/09 12:38:15;;;;;;;;;;;19.50;41.70;;;;;;5049097;28;19928;-80
2022/03/09 12:40:40;;;;;;;;;;;19.60;41.10;;;;;;5075133;28;19920;-79
2022/03/09 12:43:06;;;;;;;;;;;19.80;41.50;;;;;;5075547;28;20276;-78
2022/03/09 12:45:50;;;;;;;;;;;19.90;41.80;;;;;;5075551;28;19920;-78
2022/03/09 12:48:17;;;;;;;;;;;19.70;40.50;;;;;;5075368;28;19920;-77
2022/03/09 12:50:43;;;;;;;;;;;19.60;39.90;;;;;;5071697;28;19966;-82
2022/03/09 12:53:09;;;;;;;;;;;19.40;40.10;;;;;;5048598;28;19921;-83
2022/03/09 12:55:36;;;;;;;;;;;20.30;40.80;;;;;;5037544;28;19920;-78
2022/03/09 12:58:02;;;;;;;;;;;19.10;39.80;;;;;;5040084;28;19920;-79
2022/03/09 13:00:30;;;;;;;;;;;19.30;40.70;;;;;;5072213;28;19950;-78
2022/03/09 13:02:55;;;;;;;;;;;18.90;40.30;;;;;;5065199;28;20409;-78
2022/03/09 13:05:22;;;;;;;;;;;18.50;40.60;;;;;;5053574;28;19942;-83
2022/03/09 13:07:55;;;;;;;;;;;18.40;40.20;;;;;;5060371;28;19920;-84
2022/03/09 13:10:21;;;;;;;;;;;17.80;40.70;;;;;;5057959;28;19974;-87
2022/03/09 13:12:57;;;;;;;;;;;17.70;41.50;;;;;;5055561;28;19928;-84
2022/03/09 13:15:35;;;;;;;;;;;17.60;42.30;;;;;;5037461;28;20409;-78
2022/03/09 13:18:00;;;;;;;;;;;17.30;43.00;;;;;;5062084;28;19920;-77
2022/03/09 13:20:26;;;;;;;;;;;16.90;41.50;;;;;;5062470;28;19921;-78
2022/03/09 13:22:52;;;;;;;;;;;17.20;42.30;;;;;;5057041;28;19920;-79
2022/03/09 13:25:17;;;;;;;;;;;16.00;43.60;;;;;;5052650;28;19921;-78
2022/03/09 13:27:45;;;;;;;;;;;16.30;44.20;;;;;;5053772;28;19921;-81
2022/03/09 13:30:16;;;;;;;;;;;15.40;44.70;;;;;;5053081;28;19979;-81
2022/03/09 13:32:42;;;;;;;;;;;15.10;45.30;;;;;;5053692;28;19969;-80
2022/03/09 13:35:09;;;;;;;;;;;15.10;45.70;;;;;;5036023;28;20007;-79
2022/03/09 13:37:38;;;;;;;;;;;14.90;46.00;;;;;;5054974;28;19920;-78
2022/03/09 13:40:05;;;;;;;;;;;14.90;46.30;;;;;;5036611;28;19921;-78
2022/03/09 13:42:35;;;;;;;;;;;14.90;46.90;;;;;;5037354;28;20360;-77
2022/03/09 13:45:11;;;;;;;;;;;14.90;46.70;;;;;;5036774;28;19920;-79
2022/03/09 13:47:47;;;;;;;;;;;14.70;48.10;;;;;;5036048;28;20293;-83
2022/03/09 13:50:48;;;;;;;;;;;14.60;47.20;;;;;;5053864;28;19928;-79
2022/03/09 13:53:15;;;;;;;;;;;14.40;47.40;;;;;;4963141;28;19922;-78
2022/03/09 13:55:49;;;;;;;;;;;14.50;48.50;;;;;;5057652;28;19963;-82
2022/03/09 13:58:15;;;;;;;;;;;14.40;49.60;;;;;;5055647;28;19967;-80
2022/03/09 14:00:42;;;;;;;;;;;14.40;48.30;;;;;;5056924;28;19927;-85
2022/03/09 14:03:08;;;;;;;;;;;15.10;50.10;;;;;;5052516;28;19976;-78
2022/03/09 14:05:34;;;;;;;;;;;14.50;50.00;;;;;;5053040;28;19920;-79
2022/03/09 14:07:59;;;;;;;;;;;14.40;48.30;;;;;;5054065;28;20383;-78
2022/03/09 14:10:26;;;;;;;;;;;14.40;48.40;;;;;;5053241;28;19921;-80
2022/03/09 14:12:54;;;;;;;;;;;14.50;48.10;;;;;;5036322;28;20044;-79
2022/03/09 14:15:20;;;;;;;;;;;14.20;49.20;;;;;;5036250;28;19944;-82
2022/03/09 14:17:46;;;;;;;;;;;14.10;49.30;;;;;;5066036;28;19920;-84
2022/03/09 14:20:14;;;;;;;;;;;14.10;52.10;;;;;;5053830;28;19921;-88
2022/03/09 14:22:47;;;;;;;;;;;14.10;50.10;;;;;;5046173;28;19921;-83
2022/03/09 14:25:14;;;;;;;;;;;14.10;48.30;;;;;;5066097;28;19920;-81